sensor_id;sensor_type;location;lat;lon;timestamp;P1;durP1;ratioP1;P2;durP2;ratioP2
40867;SDS011;26586;50.708;22.412;2024-01-25T00:00:25;8.73;;;5.35;;
40867;SDS011;26586;50.708;22.412;2024-01-25T00:03:11;8.68;;;4.55;;
40867;SDS011;26586;50.708;22.412;2024-01-25T00:05:37;8.52;;;4.53;;
40867;SDS011;26586;50.708;22.412;2024-01-25T00:08:04;7.87;;;4.10;;
40867;SDS011;26586;50.708;22.412;2024-01-25T00:10:30;7.00;;;3.40;;
40867;SDS011;26586;50.708;22.412;2024-01-25T00:12:56;7.50;;;3.17;;
40867;SDS011;26586;50.708;22.412;2024-01-25T00:15:22;6.47;;;3.30;;
40867;SDS011;26586;50.708;22.412;2024-01-25T00:17:49;6.30;;;3.47;;
40867;SDS011;26586;50.708;22.412;2024-01-25T00:20:15;7.22;;;3.70;;
40867;SDS011;26586;50.708;22.412;2024-01-25T00:22:41;7.57;;;3.72;;
40867;SDS011;26586;50.708;22.412;2024-01-25T00:25:08;7.13;;;3.45;;
40867;SDS011;26586;50.708;22.412;2024-01-25T00:27:34;9.48;;;3.95;;
40867;SDS011;26586;50.708;22.412;2024-01-25T00:30:00;6.65;;;2.90;;
40867;SDS011;26586;50.708;22.412;2024-01-25T00:32:27;7.00;;;2.90;;
40867;SDS011;26586;50.708;22.412;2024-01-25T00:34:53;6.18;;;2.97;;
40867;SDS011;26586;50.708;22.412;2024-01-25T00:37:19;5.68;;;2.63;;
40867;SDS011;26586;50.708;22.412;2024-01-25T00:39:46;6.60;;;3.13;;
40867;SDS011;26586;50.708;22.412;2024-01-25T00:42:13;6.72;;;2.88;;
40867;SDS011;26586;50.708;22.412;2024-01-25T00:44:39;6.85;;;2.30;;
40867;SDS011;26586;50.708;22.412;2024-01-25T00:47:06;4.25;;;2.13;;
40867;SDS011;26586;50.708;22.412;2024-01-25T00:49:33;5.13;;;2.38;;
40867;SDS011;26586;50.708;22.412;2024-01-25T00:52:02;4.70;;;2.05;;
40867;SDS011;26586;50.708;22.412;2024-01-25T00:54:29;4.95;;;2.40;;
40867;SDS011;26586;50.708;22.412;2024-01-25T00:56:56;4.25;;;2.17;;
40867;SDS011;26586;50.708;22.412;2024-01-25T00:59:22;4.47;;;1.70;;
40867;SDS011;26586;50.708;22.412;2024-01-25T01:01:49;4.38;;;1.90;;
40867;SDS011;26586;50.708;22.412;2024-01-25T01:04:18;7.30;;;2.53;;
40867;SDS011;26586;50.708;22.412;2024-01-25T01:06:45;5.68;;;2.13;;
40867;SDS011;26586;50.708;22.412;2024-01-25T01:09:13;5.25;;;2.22;;
40867;SDS011;26586;50.708;22.412;2024-01-25T01:11:40;5.78;;;2.05;;
40867;SDS011;26586;50.708;22.412;2024-01-25T01:14:06;6.88;;;2.55;;
40867;SDS011;26586;50.708;22.412;2024-01-25T01:16:32;4.80;;;2.07;;
40867;SDS011;26586;50.708;22.412;2024-01-25T01:19:01;8.07;;;2.97;;
40867;SDS011;26586;50.708;22.412;2024-01-25T01:21:33;7.10;;;2.45;;
40867;SDS011;26586;50.708;22.412;2024-01-25T01:23:59;6.13;;;2.03;;
40867;SDS011;26586;50.708;22.412;2024-01-25T01:26:25;4.77;;;2.00;;
40867;SDS011;26586;50.708;22.412;2024-01-25T01:28:51;5.18;;;2.05;;
40867;SDS011;26586;50.708;22.412;2024-01-25T01:31:18;4.25;;;1.73;;
40867;SDS011;26586;50.708;22.412;2024-01-25T01:33:44;3.75;;;1.73;;
40867;SDS011;26586;50.708;22.412;2024-01-25T01:36:10;6.15;;;1.63;;
40867;SDS011;26586;50.708;22.412;2024-01-25T01:38:36;4.40;;;1.83;;
40867;SDS011;26586;50.708;22.412;2024-01-25T01:41:02;5.57;;;2.00;;
40867;SDS011;26586;50.708;22.412;2024-01-25T01:43:29;4.38;;;1.55;;
40867;SDS011;26586;50.708;22.412;2024-01-25T01:45:56;6.43;;;1.90;;
40867;SDS011;26586;50.708;22.412;2024-01-25T01:48:35;5.93;;;1.88;;
40867;SDS011;26586;50.708;22.412;2024-01-25T01:51:01;6.27;;;2.23;;
40867;SDS011;26586;50.708;22.412;2024-01-25T01:53:27;4.10;;;1.55;;
40867;SDS011;26586;50.708;22.412;2024-01-25T01:55:54;3.83;;;1.80;;
40867;SDS011;26586;50.708;22.412;2024-01-25T01:58:20;3.42;;;1.20;;
40867;SDS011;26586;50.708;22.412;2024-01-25T02:00:49;3.17;;;1.40;;
40867;SDS011;26586;50.708;22.412;2024-01-25T02:05:42;3.47;;;1.17;;
40867;SDS011;26586;50.708;22.412;2024-01-25T02:08:08;3.22;;;1.20;;
40867;SDS011;26586;50.708;22.412;2024-01-25T02:10:35;3.63;;;1.38;;
40867;SDS011;26586;50.708;22.412;2024-01-25T02:13:01;4.18;;;1.52;;
40867;SDS011;26586;50.708;22.412;2024-01-25T02:15:27;4.37;;;1.70;;
40867;SDS011;26586;50.708;22.412;2024-01-25T02:17:53;4.47;;;1.58;;
40867;SDS011;26586;50.708;22.412;2024-01-25T02:20:21;4.00;;;1.20;;
40867;SDS011;26586;50.708;22.412;2024-01-25T02:22:47;4.25;;;1.63;;
40867;SDS011;26586;50.708;22.412;2024-01-25T02:25:13;3.80;;;1.37;;
40867;SDS011;26586;50.708;22.412;2024-01-25T02:27:39;3.92;;;1.38;;
40867;SDS011;26586;50.708;22.412;2024-01-25T02:30:06;5.00;;;1.73;;
40867;SDS011;26586;50.708;22.412;2024-01-25T02:32:32;3.58;;;1.60;;
40867;SDS011;26586;50.708;22.412;2024-01-25T02:34:59;4.20;;;1.45;;
40867;SDS011;26586;50.708;22.412;2024-01-25T02:37:25;3.87;;;1.43;;
40867;SDS011;26586;50.708;22.412;2024-01-25T02:39:52;4.25;;;1.60;;
40867;SDS011;26586;50.708;22.412;2024-01-25T02:42:18;5.07;;;1.63;;
40867;SDS011;26586;50.708;22.412;2024-01-25T02:44:45;3.05;;;1.08;;
40867;SDS011;26586;50.708;22.412;2024-01-25T02:47:11;3.28;;;0.98;;
40867;SDS011;26586;50.708;22.412;2024-01-25T02:49:37;4.22;;;1.67;;
40867;SDS011;26586;50.708;22.412;2024-01-25T02:52:03;4.13;;;1.60;;
40867;SDS011;26586;50.708;22.412;2024-01-25T02:54:30;4.45;;;1.42;;
40867;SDS011;26586;50.708;22.412;2024-01-25T02:56:59;5.18;;;1.85;;
40867;SDS011;26586;50.708;22.412;2024-01-25T02:59:26;4.83;;;1.57;;
40867;SDS011;26586;50.708;22.412;2024-01-25T03:01:52;4.00;;;1.23;;
40867;SDS011;26586;50.708;22.412;2024-01-25T03:04:19;4.43;;;1.52;;
40867;SDS011;26586;50.708;22.412;2024-01-25T03:06:45;5.18;;;1.77;;
40867;SDS011;26586;50.708;22.412;2024-01-25T03:09:12;4.33;;;1.80;;
40867;SDS011;26586;50.708;22.412;2024-01-25T03:11:38;3.80;;;2.00;;
40867;SDS011;26586;50.708;22.412;2024-01-25T03:14:04;6.93;;;2.43;;
40867;SDS011;26586;50.708;22.412;2024-01-25T03:16:30;4.82;;;2.35;;
40867;SDS011;26586;50.708;22.412;2024-01-25T03:18:57;4.88;;;2.35;;
40867;SDS011;26586;50.708;22.412;2024-01-25T03:21:23;5.93;;;2.10;;
40867;SDS011;26586;50.708;22.412;2024-01-25T03:23:51;4.40;;;2.10;;
40867;SDS011;26586;50.708;22.412;2024-01-25T03:26:17;6.22;;;3.30;;
40867;SDS011;26586;50.708;22.412;2024-01-25T03:28:43;6.45;;;3.35;;
40867;SDS011;26586;50.708;22.412;2024-01-25T03:31:09;6.97;;;3.30;;
40867;SDS011;26586;50.708;22.412;2024-01-25T03:33:36;5.90;;;3.17;;
40867;SDS011;26586;50.708;22.412;2024-01-25T03:36:02;5.70;;;3.00;;
40867;SDS011;26586;50.708;22.412;2024-01-25T03:38:29;5.68;;;3.38;;
40867;SDS011;26586;50.708;22.412;2024-01-25T03:40:55;5.07;;;3.25;;
40867;SDS011;26586;50.708;22.412;2024-01-25T03:43:23;6.57;;;4.15;;
40867;SDS011;26586;50.708;22.412;2024-01-25T03:45:50;5.25;;;3.08;;
40867;SDS011;26586;50.708;22.412;2024-01-25T03:48:17;4.28;;;2.53;;
40867;SDS011;26586;50.708;22.412;2024-01-25T03:50:43;5.05;;;2.10;;
40867;SDS011;26586;50.708;22.412;2024-01-25T03:53:09;5.20;;;1.80;;
40867;SDS011;26586;50.708;22.412;2024-01-25T03:55:36;4.50;;;1.47;;
40867;SDS011;26586;50.708;22.412;2024-01-25T03:58:02;4.97;;;2.10;;
40867;SDS011;26586;50.708;22.412;2024-01-25T04:00:28;3.35;;;1.45;;
40867;SDS011;26586;50.708;22.412;2024-01-25T04:02:54;5.43;;;2.15;;
40867;SDS011;26586;50.708;22.412;2024-01-25T04:05:21;6.03;;;2.60;;
40867;SDS011;26586;50.708;22.412;2024-01-25T04:07:47;10.05;;;5.43;;
40867;SDS011;26586;50.708;22.412;2024-01-25T04:10:13;12.50;;;5.43;;
40867;SDS011;26586;50.708;22.412;2024-01-25T04:12:39;7.93;;;4.88;;
40867;SDS011;26586;50.708;22.412;2024-01-25T04:15:06;8.63;;;4.07;;
40867;SDS011;26586;50.708;22.412;2024-01-25T04:17:32;8.45;;;4.82;;
40867;SDS011;26586;50.708;22.412;2024-01-25T04:19:58;9.20;;;4.50;;
40867;SDS011;26586;50.708;22.412;2024-01-25T04:22:24;8.25;;;4.05;;
40867;SDS011;26586;50.708;22.412;2024-01-25T04:24:51;8.57;;;4.30;;
40867;SDS011;26586;50.708;22.412;2024-01-25T04:27:17;7.10;;;3.70;;
40867;SDS011;26586;50.708;22.412;2024-01-25T04:29:43;8.53;;;4.07;;
40867;SDS011;26586;50.708;22.412;2024-01-25T04:32:09;5.90;;;3.33;;
40867;SDS011;26586;50.708;22.412;2024-01-25T04:34:36;6.80;;;3.25;;
40867;SDS011;26586;50.708;22.412;2024-01-25T04:37:02;10.07;;;3.88;;
40867;SDS011;26586;50.708;22.412;2024-01-25T04:39:28;6.90;;;3.50;;
40867;SDS011;26586;50.708;22.412;2024-01-25T04:41:54;8.23;;;4.32;;
40867;SDS011;26586;50.708;22.412;2024-01-25T04:44:21;8.80;;;4.50;;
40867;SDS011;26586;50.708;22.412;2024-01-25T04:46:47;7.68;;;4.32;;
40867;SDS011;26586;50.708;22.412;2024-01-25T04:49:13;7.93;;;4.30;;
40867;SDS011;26586;50.708;22.412;2024-01-25T04:51:39;6.60;;;3.33;;
40867;SDS011;26586;50.708;22.412;2024-01-25T04:54:06;7.27;;;4.57;;
40867;SDS011;26586;50.708;22.412;2024-01-25T04:56:34;8.48;;;5.18;;
40867;SDS011;26586;50.708;22.412;2024-01-25T04:59:00;7.00;;;3.70;;
40867;SDS011;26586;50.708;22.412;2024-01-25T05:01:26;6.53;;;3.00;;
40867;SDS011;26586;50.708;22.412;2024-01-25T05:03:52;6.97;;;3.40;;
40867;SDS011;26586;50.708;22.412;2024-01-25T05:06:18;5.55;;;2.30;;
40867;SDS011;26586;50.708;22.412;2024-01-25T05:08:45;5.77;;;1.57;;
40867;SDS011;26586;50.708;22.412;2024-01-25T05:11:11;4.55;;;1.60;;
40867;SDS011;26586;50.708;22.412;2024-01-25T05:13:37;4.95;;;1.67;;
40867;SDS011;26586;50.708;22.412;2024-01-25T05:16:03;4.13;;;1.70;;
40867;SDS011;26586;50.708;22.412;2024-01-25T05:18:30;4.47;;;1.60;;
40867;SDS011;26586;50.708;22.412;2024-01-25T05:20:56;4.53;;;1.85;;
40867;SDS011;26586;50.708;22.412;2024-01-25T05:25:50;5.85;;;2.53;;
40867;SDS011;26586;50.708;22.412;2024-01-25T05:28:16;5.73;;;2.50;;
40867;SDS011;26586;50.708;22.412;2024-01-25T05:30:42;5.93;;;2.72;;
40867;SDS011;26586;50.708;22.412;2024-01-25T05:33:08;5.67;;;2.50;;
40867;SDS011;26586;50.708;22.412;2024-01-25T05:35:35;3.60;;;1.85;;
40867;SDS011;26586;50.708;22.412;2024-01-25T05:38:01;4.40;;;2.37;;
40867;SDS011;26586;50.708;22.412;2024-01-25T05:40:27;4.68;;;2.25;;
40867;SDS011;26586;50.708;22.412;2024-01-25T05:42:54;5.17;;;2.17;;
40867;SDS011;26586;50.708;22.412;2024-01-25T05:45:20;5.33;;;2.13;;
40867;SDS011;26586;50.708;22.412;2024-01-25T05:47:47;5.57;;;1.95;;
40867;SDS011;26586;50.708;22.412;2024-01-25T05:50:14;3.85;;;1.77;;
40867;SDS011;26586;50.708;22.412;2024-01-25T05:52:40;4.63;;;1.97;;
40867;SDS011;26586;50.708;22.412;2024-01-25T05:55:06;6.28;;;2.40;;
40867;SDS011;26586;50.708;22.412;2024-01-25T05:57:34;5.30;;;2.25;;
40867;SDS011;26586;50.708;22.412;2024-01-25T06:00:01;4.40;;;1.95;;
40867;SDS011;26586;50.708;22.412;2024-01-25T06:02:31;3.78;;;1.83;;
40867;SDS011;26586;50.708;22.412;2024-01-25T06:04:57;5.10;;;1.70;;
40867;SDS011;26586;50.708;22.412;2024-01-25T06:07:25;3.63;;;1.60;;
40867;SDS011;26586;50.708;22.412;2024-01-25T06:09:52;5.50;;;1.73;;
40867;SDS011;26586;50.708;22.412;2024-01-25T06:12:18;4.13;;;1.65;;
40867;SDS011;26586;50.708;22.412;2024-01-25T06:14:44;4.20;;;1.70;;
40867;SDS011;26586;50.708;22.412;2024-01-25T06:17:11;4.28;;;1.80;;
40867;SDS011;26586;50.708;22.412;2024-01-25T06:19:37;5.30;;;1.92;;
40867;SDS011;26586;50.708;22.412;2024-01-25T06:22:03;4.60;;;1.73;;
40867;SDS011;26586;50.708;22.412;2024-01-25T06:24:29;4.50;;;2.10;;
40867;SDS011;26586;50.708;22.412;2024-01-25T06:26:56;5.20;;;2.00;;
40867;SDS011;26586;50.708;22.412;2024-01-25T06:29:22;5.50;;;2.13;;
40867;SDS011;26586;50.708;22.412;2024-01-25T06:31:48;7.07;;;3.15;;
40867;SDS011;26586;50.708;22.412;2024-01-25T06:34:14;6.63;;;3.47;;
40867;SDS011;26586;50.708;22.412;2024-01-25T06:36:40;10.20;;;8.57;;
40867;SDS011;26586;50.708;22.412;2024-01-25T06:39:07;13.45;;;11.48;;
40867;SDS011;26586;50.708;22.412;2024-01-25T06:41:34;12.13;;;8.20;;
40867;SDS011;26586;50.708;22.412;2024-01-25T06:44:00;7.60;;;5.97;;
40867;SDS011;26586;50.708;22.412;2024-01-25T06:46:26;6.50;;;4.95;;
40867;SDS011;26586;50.708;22.412;2024-01-25T06:48:52;8.40;;;5.07;;
40867;SDS011;26586;50.708;22.412;2024-01-25T06:51:19;7.60;;;4.40;;
40867;SDS011;26586;50.708;22.412;2024-01-25T06:53:45;8.52;;;4.80;;
40867;SDS011;26586;50.708;22.412;2024-01-25T06:56:12;7.13;;;4.75;;
40867;SDS011;26586;50.708;22.412;2024-01-25T06:58:38;6.35;;;3.58;;
40867;SDS011;26586;50.708;22.412;2024-01-25T07:01:04;6.15;;;3.40;;
40867;SDS011;26586;50.708;22.412;2024-01-25T07:03:31;4.93;;;3.03;;
40867;SDS011;26586;50.708;22.412;2024-01-25T07:05:57;5.93;;;2.60;;
40867;SDS011;26586;50.708;22.412;2024-01-25T07:08:23;5.73;;;2.57;;
40867;SDS011;26586;50.708;22.412;2024-01-25T07:10:49;6.22;;;2.75;;
40867;SDS011;26586;50.708;22.412;2024-01-25T07:13:16;5.88;;;2.47;;
40867;SDS011;26586;50.708;22.412;2024-01-25T07:15:42;5.15;;;2.40;;
40867;SDS011;26586;50.708;22.412;2024-01-25T07:18:08;5.57;;;2.70;;
40867;SDS011;26586;50.708;22.412;2024-01-25T07:20:34;5.47;;;3.05;;
40867;SDS011;26586;50.708;22.412;2024-01-25T07:23:01;5.20;;;3.00;;
40867;SDS011;26586;50.708;22.412;2024-01-25T07:25:27;12.85;;;8.00;;
40867;SDS011;26586;50.708;22.412;2024-01-25T07:27:53;14.53;;;9.53;;
40867;SDS011;26586;50.708;22.412;2024-01-25T07:30:19;12.32;;;9.63;;
40867;SDS011;26586;50.708;22.412;2024-01-25T07:32:46;12.30;;;7.82;;
40867;SDS011;26586;50.708;22.412;2024-01-25T07:35:12;11.65;;;7.03;;
40867;SDS011;26586;50.708;22.412;2024-01-25T07:37:39;10.83;;;7.37;;
40867;SDS011;26586;50.708;22.412;2024-01-25T07:40:08;9.05;;;6.38;;
40867;SDS011;26586;50.708;22.412;2024-01-25T07:42:35;16.23;;;12.05;;
40867;SDS011;26586;50.708;22.412;2024-01-25T07:45:01;13.23;;;8.75;;
40867;SDS011;26586;50.708;22.412;2024-01-25T07:47:27;9.90;;;6.05;;
40867;SDS011;26586;50.708;22.412;2024-01-25T07:49:53;14.88;;;10.55;;
40867;SDS011;26586;50.708;22.412;2024-01-25T07:52:20;15.52;;;10.40;;
40867;SDS011;26586;50.708;22.412;2024-01-25T07:54:46;14.10;;;9.27;;
40867;SDS011;26586;50.708;22.412;2024-01-25T07:57:12;11.13;;;7.73;;
40867;SDS011;26586;50.708;22.412;2024-01-25T07:59:38;12.10;;;7.30;;
40867;SDS011;26586;50.708;22.412;2024-01-25T08:02:05;8.10;;;5.38;;
40867;SDS011;26586;50.708;22.412;2024-01-25T08:04:31;6.60;;;3.72;;
40867;SDS011;26586;50.708;22.412;2024-01-25T08:06:58;7.00;;;3.20;;
40867;SDS011;26586;50.708;22.412;2024-01-25T08:09:24;5.10;;;2.63;;
40867;SDS011;26586;50.708;22.412;2024-01-25T08:11:50;5.30;;;2.20;;
40867;SDS011;26586;50.708;22.412;2024-01-25T08:14:17;5.97;;;2.20;;
40867;SDS011;26586;50.708;22.412;2024-01-25T08:16:44;8.30;;;3.00;;
40867;SDS011;26586;50.708;22.412;2024-01-25T08:19:10;5.00;;;2.40;;
40867;SDS011;26586;50.708;22.412;2024-01-25T08:21:36;4.75;;;2.40;;
40867;SDS011;26586;50.708;22.412;2024-01-25T08:24:02;4.80;;;2.08;;
40867;SDS011;26586;50.708;22.412;2024-01-25T08:28:55;6.07;;;2.70;;
40867;SDS011;26586;50.708;22.412;2024-01-25T08:31:22;5.57;;;2.43;;
40867;SDS011;26586;50.708;22.412;2024-01-25T08:33:48;8.43;;;4.57;;
40867;SDS011;26586;50.708;22.412;2024-01-25T08:36:17;8.13;;;4.45;;
40867;SDS011;26586;50.708;22.412;2024-01-25T08:38:48;7.57;;;3.78;;
40867;SDS011;26586;50.708;22.412;2024-01-25T08:41:14;6.43;;;2.67;;
40867;SDS011;26586;50.708;22.412;2024-01-25T08:43:41;9.90;;;6.55;;
40867;SDS011;26586;50.708;22.412;2024-01-25T08:46:08;12.40;;;10.30;;
40867;SDS011;26586;50.708;22.412;2024-01-25T08:48:34;10.43;;;8.43;;
40867;SDS011;26586;50.708;22.412;2024-01-25T08:51:01;7.90;;;5.05;;
40867;SDS011;26586;50.708;22.412;2024-01-25T08:53:27;6.60;;;3.90;;
40867;SDS011;26586;50.708;22.412;2024-01-25T08:55:54;5.05;;;2.63;;
40867;SDS011;26586;50.708;22.412;2024-01-25T08:58:20;3.65;;;2.13;;
40867;SDS011;26586;50.708;22.412;2024-01-25T09:00:47;6.50;;;2.45;;
40867;SDS011;26586;50.708;22.412;2024-01-25T09:03:16;4.47;;;2.33;;
40867;SDS011;26586;50.708;22.412;2024-01-25T09:05:43;5.63;;;2.47;;
40867;SDS011;26586;50.708;22.412;2024-01-25T09:08:12;5.53;;;2.15;;
40867;SDS011;26586;50.708;22.412;2024-01-25T09:10:40;5.53;;;2.40;;
40867;SDS011;26586;50.708;22.412;2024-01-25T09:13:07;4.85;;;1.95;;
40867;SDS011;26586;50.708;22.412;2024-01-25T09:15:33;4.78;;;2.10;;
40867;SDS011;26586;50.708;22.412;2024-01-25T09:17:59;4.43;;;1.88;;
40867;SDS011;26586;50.708;22.412;2024-01-25T09:20:26;3.65;;;2.28;;
40867;SDS011;26586;50.708;22.412;2024-01-25T09:22:52;6.35;;;3.47;;
40867;SDS011;26586;50.708;22.412;2024-01-25T09:25:21;5.15;;;2.85;;
40867;SDS011;26586;50.708;22.412;2024-01-25T09:27:48;5.22;;;2.08;;
40867;SDS011;26586;50.708;22.412;2024-01-25T09:30:15;6.77;;;3.33;;
40867;SDS011;26586;50.708;22.412;2024-01-25T09:32:41;5.30;;;2.23;;
40867;SDS011;26586;50.708;22.412;2024-01-25T09:35:07;4.07;;;1.90;;
40867;SDS011;26586;50.708;22.412;2024-01-25T09:37:33;3.47;;;1.80;;
40867;SDS011;26586;50.708;22.412;2024-01-25T09:40:00;6.23;;;2.60;;
40867;SDS011;26586;50.708;22.412;2024-01-25T09:42:27;3.92;;;1.75;;
40867;SDS011;26586;50.708;22.412;2024-01-25T09:44:54;3.30;;;1.70;;
40867;SDS011;26586;50.708;22.412;2024-01-25T09:47:20;3.85;;;1.58;;
40867;SDS011;26586;50.708;22.412;2024-01-25T09:49:47;2.80;;;1.67;;
40867;SDS011;26586;50.708;22.412;2024-01-25T09:52:13;4.23;;;1.60;;
40867;SDS011;26586;50.708;22.412;2024-01-25T09:54:41;4.47;;;1.90;;
40867;SDS011;26586;50.708;22.412;2024-01-25T09:57:15;4.07;;;1.40;;
40867;SDS011;26586;50.708;22.412;2024-01-25T09:59:45;3.25;;;1.63;;
40867;SDS011;26586;50.708;22.412;2024-01-25T10:02:11;4.15;;;1.52;;
40867;SDS011;26586;50.708;22.412;2024-01-25T10:04:38;3.97;;;1.70;;
40867;SDS011;26586;50.708;22.412;2024-01-25T10:07:04;3.92;;;1.80;;
40867;SDS011;26586;50.708;22.412;2024-01-25T10:09:40;2.17;;;1.40;;
40867;SDS011;26586;50.708;22.412;2024-01-25T10:14:34;4.07;;;1.92;;
40867;SDS011;26586;50.708;22.412;2024-01-25T10:17:00;2.97;;;1.70;;
40867;SDS011;26586;50.708;22.412;2024-01-25T10:19:26;4.30;;;1.90;;
40867;SDS011;26586;50.708;22.412;2024-01-25T10:21:53;5.25;;;3.55;;
40867;SDS011;26586;50.708;22.412;2024-01-25T10:24:19;8.40;;;6.53;;
40867;SDS011;26586;50.708;22.412;2024-01-25T10:26:46;6.88;;;5.38;;
40867;SDS011;26586;50.708;22.412;2024-01-25T10:29:15;5.07;;;3.40;;
40867;SDS011;26586;50.708;22.412;2024-01-25T10:31:41;7.35;;;5.18;;
40867;SDS011;26586;50.708;22.412;2024-01-25T10:34:08;8.65;;;6.45;;
40867;SDS011;26586;50.708;22.412;2024-01-25T10:36:38;11.63;;;9.20;;
40867;SDS011;26586;50.708;22.412;2024-01-25T10:39:07;12.25;;;8.70;;
40867;SDS011;26586;50.708;22.412;2024-01-25T10:41:34;16.52;;;12.93;;
40867;SDS011;26586;50.708;22.412;2024-01-25T10:44:01;13.23;;;9.95;;
40867;SDS011;26586;50.708;22.412;2024-01-25T10:46:29;13.43;;;10.45;;
40867;SDS011;26586;50.708;22.412;2024-01-25T10:51:22;12.13;;;8.20;;
40867;SDS011;26586;50.708;22.412;2024-01-25T10:53:49;7.60;;;5.32;;
40867;SDS011;26586;50.708;22.412;2024-01-25T10:56:16;4.88;;;3.42;;
40867;SDS011;26586;50.708;22.412;2024-01-25T10:58:43;4.32;;;2.95;;
40867;SDS011;26586;50.708;22.412;2024-01-25T11:01:09;4.05;;;2.75;;
40867;SDS011;26586;50.708;22.412;2024-01-25T11:03:39;4.57;;;2.67;;
40867;SDS011;26586;50.708;22.412;2024-01-25T11:06:09;5.03;;;3.00;;
40867;SDS011;26586;50.708;22.412;2024-01-25T11:08:36;4.68;;;3.08;;
40867;SDS011;26586;50.708;22.412;2024-01-25T11:11:07;5.80;;;3.42;;
40867;SDS011;26586;50.708;22.412;2024-01-25T11:13:42;3.40;;;2.20;;
40867;SDS011;26586;50.708;22.412;2024-01-25T11:16:16;3.08;;;1.77;;
40867;SDS011;26586;50.708;22.412;2024-01-25T11:18:54;4.10;;;2.03;;
40867;SDS011;26586;50.708;22.412;2024-01-25T11:24:10;3.38;;;2.05;;
40867;SDS011;26586;50.708;22.412;2024-01-25T11:26:56;3.47;;;2.08;;
40867;SDS011;26586;50.708;22.412;2024-01-25T11:29:22;3.88;;;2.33;;
40867;SDS011;26586;50.708;22.412;2024-01-25T11:31:54;3.55;;;2.10;;
40867;SDS011;26586;50.708;22.412;2024-01-25T11:34:22;5.90;;;4.65;;
40867;SDS011;26586;50.708;22.412;2024-01-25T11:36:48;9.50;;;5.97;;
40867;SDS011;26586;50.708;22.412;2024-01-25T11:39:15;8.93;;;7.78;;
40867;SDS011;26586;50.708;22.412;2024-01-25T11:41:43;8.60;;;7.47;;
40867;SDS011;26586;50.708;22.412;2024-01-25T11:44:13;6.18;;;4.68;;
40867;SDS011;26586;50.708;22.412;2024-01-25T11:46:39;4.97;;;3.83;;
40867;SDS011;26586;50.708;22.412;2024-01-25T11:49:05;3.70;;;2.70;;
40867;SDS011;26586;50.708;22.412;2024-01-25T11:51:34;3.30;;;2.55;;
40867;SDS011;26586;50.708;22.412;2024-01-25T11:54:00;4.88;;;4.25;;
40867;SDS011;26586;50.708;22.412;2024-01-25T11:56:31;12.30;;;9.98;;
40867;SDS011;26586;50.708;22.412;2024-01-25T11:59:00;14.05;;;10.50;;
40867;SDS011;26586;50.708;22.412;2024-01-25T12:01:26;18.88;;;12.50;;
40867;SDS011;26586;50.708;22.412;2024-01-25T12:03:54;9.88;;;7.53;;
40867;SDS011;26586;50.708;22.412;2024-01-25T12:06:21;10.07;;;8.27;;
40867;SDS011;26586;50.708;22.412;2024-01-25T12:08:47;14.85;;;12.35;;
40867;SDS011;26586;50.708;22.412;2024-01-25T12:11:13;16.50;;;12.50;;
40867;SDS011;26586;50.708;22.412;2024-01-25T12:13:41;15.02;;;11.63;;
40867;SDS011;26586;50.708;22.412;2024-01-25T12:16:08;20.42;;;14.10;;
40867;SDS011;26586;50.708;22.412;2024-01-25T12:18:36;19.95;;;13.43;;
40867;SDS011;26586;50.708;22.412;2024-01-25T12:21:04;24.52;;;17.40;;
40867;SDS011;26586;50.708;22.412;2024-01-25T12:23:32;20.55;;;14.68;;
40867;SDS011;26586;50.708;22.412;2024-01-25T12:26:05;20.35;;;13.00;;
40867;SDS011;26586;50.708;22.412;2024-01-25T12:28:33;23.75;;;16.10;;
40867;SDS011;26586;50.708;22.412;2024-01-25T12:31:00;18.83;;;12.95;;
40867;SDS011;26586;50.708;22.412;2024-01-25T12:33:30;9.25;;;6.43;;
40867;SDS011;26586;50.708;22.412;2024-01-25T12:35:57;9.43;;;7.13;;
40867;SDS011;26586;50.708;22.412;2024-01-25T12:38:24;8.60;;;6.47;;
40867;SDS011;26586;50.708;22.412;2024-01-25T12:40:51;7.22;;;5.13;;
40867;SDS011;26586;50.708;22.412;2024-01-25T12:43:18;5.15;;;3.33;;
40867;SDS011;26586;50.708;22.412;2024-01-25T12:45:47;3.65;;;2.60;;
40867;SDS011;26586;50.708;22.412;2024-01-25T12:48:13;3.28;;;1.95;;
40867;SDS011;26586;50.708;22.412;2024-01-25T12:50:40;3.53;;;2.23;;
40867;SDS011;26586;50.708;22.412;2024-01-25T12:55:35;4.15;;;2.00;;
40867;SDS011;26586;50.708;22.412;2024-01-25T12:58:02;4.15;;;1.73;;
40867;SDS011;26586;50.708;22.412;2024-01-25T13:00:28;2.13;;;1.40;;
40867;SDS011;26586;50.708;22.412;2024-01-25T13:02:55;2.40;;;1.70;;
40867;SDS011;26586;50.708;22.412;2024-01-25T13:05:22;3.40;;;1.42;;
40867;SDS011;26586;50.708;22.412;2024-01-25T13:10:15;3.92;;;1.60;;
40867;SDS011;26586;50.708;22.412;2024-01-25T13:12:42;4.05;;;2.15;;
40867;SDS011;26586;50.708;22.412;2024-01-25T13:15:08;3.90;;;2.20;;
40867;SDS011;26586;50.708;22.412;2024-01-25T13:17:34;3.33;;;1.77;;
40867;SDS011;26586;50.708;22.412;2024-01-25T13:20:04;4.65;;;1.95;;
40867;SDS011;26586;50.708;22.412;2024-01-25T13:22:34;4.10;;;2.10;;
40867;SDS011;26586;50.708;22.412;2024-01-25T13:25:00;3.92;;;2.58;;
40867;SDS011;26586;50.708;22.412;2024-01-25T13:27:27;4.70;;;2.58;;
40867;SDS011;26586;50.708;22.412;2024-01-25T13:29:54;2.85;;;1.80;;
40867;SDS011;26586;50.708;22.412;2024-01-25T13:32:22;3.05;;;1.85;;
40867;SDS011;26586;50.708;22.412;2024-01-25T13:37:14;2.22;;;1.35;;
40867;SDS011;26586;50.708;22.412;2024-01-25T13:39:40;1.92;;;1.20;;
40867;SDS011;26586;50.708;22.412;2024-01-25T13:42:06;2.03;;;1.20;;
40867;SDS011;26586;50.708;22.412;2024-01-25T13:44:32;2.83;;;1.45;;
40867;SDS011;26586;50.708;22.412;2024-01-25T13:46:59;3.72;;;2.38;;
40867;SDS011;26586;50.708;22.412;2024-01-25T13:49:27;5.07;;;3.17;;
40867;SDS011;26586;50.708;22.412;2024-01-25T13:51:53;5.80;;;4.53;;
40867;SDS011;26586;50.708;22.412;2024-01-25T13:54:19;7.17;;;5.57;;
40867;SDS011;26586;50.708;22.412;2024-01-25T13:56:46;8.55;;;6.63;;
40867;SDS011;26586;50.708;22.412;2024-01-25T13:59:12;8.77;;;5.85;;
40867;SDS011;26586;50.708;22.412;2024-01-25T14:01:38;5.70;;;3.90;;
40867;SDS011;26586;50.708;22.412;2024-01-25T14:04:04;5.97;;;4.05;;
40867;SDS011;26586;50.708;22.412;2024-01-25T14:06:31;5.30;;;3.30;;
40867;SDS011;26586;50.708;22.412;2024-01-25T14:08:57;5.97;;;3.83;;
40867;SDS011;26586;50.708;22.412;2024-01-25T14:11:23;4.97;;;3.30;;
40867;SDS011;26586;50.708;22.412;2024-01-25T14:13:51;5.90;;;3.33;;
40867;SDS011;26586;50.708;22.412;2024-01-25T14:16:18;7.00;;;3.90;;
40867;SDS011;26586;50.708;22.412;2024-01-25T14:18:44;6.25;;;4.43;;
40867;SDS011;26586;50.708;22.412;2024-01-25T14:21:10;5.40;;;3.67;;
40867;SDS011;26586;50.708;22.412;2024-01-25T14:23:36;5.10;;;2.97;;
40867;SDS011;26586;50.708;22.412;2024-01-25T14:26:03;2.75;;;1.83;;
40867;SDS011;26586;50.708;22.412;2024-01-25T14:28:29;2.85;;;2.08;;
40867;SDS011;26586;50.708;22.412;2024-01-25T14:30:55;2.72;;;1.88;;
40867;SDS011;26586;50.708;22.412;2024-01-25T14:33:21;4.00;;;2.37;;
40867;SDS011;26586;50.708;22.412;2024-01-25T14:35:48;7.32;;;5.07;;
40867;SDS011;26586;50.708;22.412;2024-01-25T14:38:14;13.30;;;9.38;;
40867;SDS011;26586;50.708;22.412;2024-01-25T14:40:40;4.68;;;3.10;;
40867;SDS011;26586;50.708;22.412;2024-01-25T14:43:06;14.77;;;9.80;;
40867;SDS011;26586;50.708;22.412;2024-01-25T14:45:33;16.30;;;11.07;;
40867;SDS011;26586;50.708;22.412;2024-01-25T14:48:01;15.60;;;11.82;;
40867;SDS011;26586;50.708;22.412;2024-01-25T14:50:27;23.95;;;19.80;;